Time;durP1;ratioP1;P1;durP2;ratioP2;P2;SDS_P1;SDS_P2;PMS_P1;PMS_P2;Temp;Humidity;BMP_temperature;BMP_pressure;BME280_temperature;BME280_humidity;BME280_pressure;Samples;Min_cycle;Max_cycle;Signal;HPM_P1;HPM_P2
2021/12/14 00:01:09;;;;;;;0.10;0.10;;;8.30;99.90;;;;;;5033304;28;20618;-69
2021/12/14 00:03:40;;;;;;;0.00;0.00;;;8.30;99.90;;;;;;5047768;28;20605;-71
2021/12/14 00:06:10;;;;;;;0.03;0.03;;;8.30;99.90;;;;;;5049507;28;20739;-70
2021/12/14 00:08:48;;;;;;;0.10;0.10;;;8.20;99.90;;;;;;5051064;28;20646;-70
2021/12/14 00:14:15;;;;;;;0.10;0.10;;;8.20;99.90;;;;;;5048331;28;20618;-70
2021/12/14 00:16:43;;;;;;;0.00;0.00;;;8.10;99.90;;;;;;5051110;28;21047;-70
2021/12/14 00:19:11;;;;;;;0.10;0.10;;;8.30;99.90;;;;;;5048592;28;20628;-71
2021/12/14 00:21:43;;;;;;;0.00;0.00;;;8.00;99.90;;;;;;5046141;28;20649;-71
2021/12/14 00:24:14;;;;;;;0.00;0.00;;;8.10;99.90;;;;;;5048645;28;20593;-70
2021/12/14 00:26:45;;;;;;;0.10;0.10;;;8.40;99.90;;;;;;5048669;28;20751;-70
2021/12/14 00:29:16;;;;;;;0.10;0.10;;;8.00;99.90;;;;;;5063139;28;20630;-70
2021/12/14 00:31:43;;;;;;;0.10;0.10;;;8.30;99.90;;;;;;5048693;28;20650;-70
2021/12/14 00:34:13;;;;;;;0.10;0.10;;;7.80;99.90;;;;;;5050125;28;20624;-69
2021/12/14 00:36:42;;;;;;;0.10;0.10;;;8.70;99.90;;;;;;5045679;28;20628;-70
2021/12/14 00:39:11;;;;;;;0.10;0.10;;;8.20;99.90;;;;;;5047057;28;21004;-71
2021/12/14 00:41:40;;;;;;;0.00;0.00;;;8.20;99.90;;;;;;5047382;28;20656;-70
2021/12/14 00:44:08;;;;;;;0.10;0.10;;;;;;;;;;5048634;28;20671;-71
2021/12/14 00:46:36;;;;;;;0.00;0.00;;;8.10;99.90;;;;;;5049453;28;20668;-71
2021/12/14 00:49:04;;;;;;;0.10;0.10;;;8.10;99.90;;;;;;5047400;28;20608;-70
2021/12/14 00:51:32;;;;;;;0.13;0.13;;;8.20;99.90;;;;;;5044967;28;20649;-71
2021/12/14 00:54:03;;;;;;;0.10;0.10;;;8.40;99.90;;;;;;5045408;28;20645;-70
2021/12/14 00:56:33;;;;;;;0.10;0.10;;;8.10;99.90;;;;;;5051761;28;20636;-71
2021/12/14 00:59:01;;;;;;;0.10;0.10;;;8.10;99.90;;;;;;5036466;28;20641;-71
2021/12/14 01:01:30;;;;;;;0.10;0.10;;;;;;;;;;5046629;28;20681;-70
2021/12/14 01:03:59;;;;;;;0.00;0.00;;;;;;;;;;5047987;28;20740;-71
2021/12/14 01:06:28;;;;;;;0.00;0.00;;;;;;;;;;5049290;28;20663;-69
2021/12/14 01:08:55;;;;;;;0.10;0.10;;;;;;;;;;5050642;28;20633;-70
2021/12/14 01:11:28;;;;;;;0.03;0.03;;;;;;;;;;5049028;28;20657;-69
2021/12/14 01:14:01;;;;;;;0.10;0.10;;;;;;;;;;5051201;28;20634;-70
2021/12/14 01:16:34;;;;;;;0.10;0.10;;;;;;;;;;5048138;28;20625;-71
2021/12/14 01:19:13;;;;;;;0.10;0.10;;;;;;;;;;5048969;28;20626;-70
2021/12/14 01:21:59;;;;;;;0.10;0.10;;;;;;;;;;5044298;28;20657;-70
2021/12/14 01:25:00;;;;;;;0.10;0.10;;;;;;;;;;5047805;28;20629;-68
2021/12/14 01:27:30;;;;;;;0.10;0.10;;;8.00;99.90;;;;;;5051485;28;20705;-69
2021/12/14 01:30:01;;;;;;;0.00;0.00;;;8.00;99.90;;;;;;5047577;28;20617;-69
2021/12/14 01:32:30;;;;;;;0.10;0.10;;;8.00;99.90;;;;;;5049223;28;20638;-69
2021/12/14 01:34:57;;;;;;;0.10;0.10;;;8.10;99.90;;;;;;5041801;28;20617;-70
2021/12/14 01:37:28;;;;;;;0.10;0.10;;;8.00;99.90;;;;;;5062669;28;20619;-70
2021/12/14 01:40:06;;;;;;;0.10;0.10;;;8.10;99.90;;;;;;5046808;28;20618;-70
2021/12/14 01:42:41;;;;;;;0.10;0.10;;;7.90;99.90;;;;;;5045859;28;20736;-70
2021/12/14 01:45:13;;;;;;;0.10;0.10;;;8.10;99.90;;;;;;5048003;28;20694;-68
2021/12/14 01:47:45;;;;;;;0.10;0.10;;;7.90;99.90;;;;;;5035103;28;20629;-70
2021/12/14 01:50:34;;;;;;;0.10;0.10;;;8.20;99.90;;;;;;5050592;28;20689;-70
2021/12/14 01:53:22;;;;;;;0.10;0.10;;;;;;;;;;5041825;28;20698;-70
2021/12/14 01:55:53;;;;;;;0.10;0.10;;;7.90;99.90;;;;;;5052423;28;20628;-68
2021/12/14 01:58:25;;;;;;;0.10;0.10;;;8.20;99.90;;;;;;5049623;28;20662;-69
2021/12/14 02:00:54;;;;;;;0.00;0.00;;;;;;;;;;5053165;28;20621;-70
2021/12/14 02:03:30;;;;;;;0.10;0.10;;;7.90;99.90;;;;;;5063511;28;20653;-70
2021/12/14 02:05:57;;;;;;;0.10;0.10;;;7.90;99.90;;;;;;5051186;28;21311;-69
2021/12/14 02:08:25;;;;;;;0.10;0.10;;;;;;;;;;5055144;28;20666;-71
2021/12/14 02:10:54;;;;;;;0.10;0.10;;;8.00;99.90;;;;;;5052091;28;20977;-70
2021/12/14 02:13:30;;;;;;;0.10;0.10;;;7.90;99.90;;;;;;5067757;28;20646;-70
2021/12/14 02:15:57;;;;;;;0.00;0.00;;;;;;;;;;5037078;28;20612;-70
2021/12/14 02:18:29;;;;;;;0.00;0.00;;;8.00;99.90;;;;;;5052402;28;20613;-70
2021/12/14 02:21:00;;;;;;;0.10;0.10;;;7.80;99.90;;;;;;5048588;28;20624;-70
2021/12/14 02:23:29;;;;;;;0.10;0.10;;;8.10;99.90;;;;;;5048187;28;20684;-69
2021/12/14 02:25:59;;;;;;;0.10;0.10;;;8.00;99.90;;;;;;5054461;28;20649;-70
2021/12/14 02:28:26;;;;;;;0.10;0.10;;;8.00;99.90;;;;;;5054889;28;21004;-70
2021/12/14 02:30:56;;;;;;;0.00;0.00;;;8.10;99.90;;;;;;5050134;28;20623;-70
2021/12/14 02:33:28;;;;;;;0.10;0.10;;;;;;;;;;5049827;28;20638;-70
2021/12/14 02:35:56;;;;;;;0.10;0.10;;;7.90;99.90;;;;;;5054038;28;20613;-71
2021/12/14 02:38:26;;;;;;;0.10;0.10;;;7.90;99.90;;;;;;5053561;28;20737;-71
2021/12/14 02:40:57;;;;;;;0.10;0.10;;;7.80;99.90;;;;;;5034288;28;20609;-71
2021/12/14 02:43:36;;;;;;;0.10;0.10;;;7.80;99.90;;;;;;5051074;28;20613;-70
2021/12/14 02:46:08;;;;;;;0.10;0.10;;;7.80;99.90;;;;;;5048787;28;20648;-71
2021/12/14 02:48:35;;;;;;;0.10;0.10;;;7.90;99.90;;;;;;5048689;28;20988;-71
2021/12/14 02:51:08;;;;;;;0.00;0.00;;;7.80;99.90;;;;;;5051816;28;20630;-70
2021/12/14 02:53:37;;;;;;;0.10;0.10;;;;;;;;;;5035275;28;20718;-71
2021/12/14 02:56:10;;;;;;;0.00;0.00;;;7.90;99.90;;;;;;5045336;28;20617;-71
2021/12/14 02:58:38;;;;;;;0.10;0.10;;;7.70;99.90;;;;;;5067398;28;20634;-71
2021/12/14 03:01:06;;;;;;;0.10;0.10;;;7.90;99.90;;;;;;5046820;28;21102;-70
2021/12/14 03:03:34;;;;;;;0.10;0.10;;;7.90;99.90;;;;;;5049052;28;20772;-71
2021/12/14 03:06:01;;;;;;;0.10;0.10;;;7.80;99.90;;;;;;5051119;28;20659;-71
2021/12/14 03:08:32;;;;;;;0.00;0.00;;;7.70;99.90;;;;;;5049578;28;20640;-71
2021/12/14 03:11:10;;;;;;;0.10;0.10;;;7.80;99.90;;;;;;5047602;28;20687;-71
2021/12/14 03:13:40;;;;;;;0.00;0.00;;;7.70;99.90;;;;;;5036686;28;20721;-71
2021/12/14 03:16:14;;;;;;;0.10;0.10;;;7.80;99.90;;;;;;5050541;28;20605;-71
2021/12/14 03:18:47;;;;;;;0.03;0.03;;;7.80;99.90;;;;;;5070323;28;20624;-71
2021/12/14 03:21:17;;;;;;;0.00;0.00;;;7.90;99.90;;;;;;5050880;28;20617;-71
2021/12/14 03:23:47;;;;;;;0.10;0.10;;;8.00;99.90;;;;;;5051264;28;20658;-69
2021/12/14 03:26:19;;;;;;;0.10;0.10;;;7.80;99.90;;;;;;5048776;28;20770;-71
2021/12/14 03:28:50;;;;;;;0.10;0.10;;;7.80;99.90;;;;;;5055145;28;20624;-71
2021/12/14 03:31:25;;;;;;;0.00;0.00;;;7.90;99.90;;;;;;5044295;28;20745;-70
2021/12/14 03:33:54;;;;;;;0.03;0.03;;;;;;;;;;5046284;28;20635;-70
2021/12/14 03:36:24;;;;;;;0.00;0.00;;;;;;;;;;5044524;28;20712;-71
2021/12/14 03:38:53;;;;;;;0.00;0.00;;;;;;;;;;5047028;28;20636;-69
2021/12/14 03:41:26;;;;;;;0.10;0.10;;;8.10;99.90;;;;;;5050138;28;20721;-70
2021/12/14 03:43:58;;;;;;;0.10;0.10;;;7.70;99.90;;;;;;5064811;28;20631;-70
2021/12/14 03:46:29;;;;;;;0.00;0.00;;;7.80;99.90;;;;;;5047957;28;20665;-70
2021/12/14 03:48:58;;;;;;;0.10;0.10;;;7.80;99.90;;;;;;5048146;28;20618;-71
2021/12/14 03:51:27;;;;;;;0.10;0.10;;;6.20;99.90;;;;;;5045701;28;21270;-71
2021/12/14 03:53:57;;;;;;;0.10;0.10;;;8.00;99.90;;;;;;5054813;28;20659;-70
2021/12/14 03:56:27;;;;;;;0.10;0.10;;;7.90;99.90;;;;;;5045164;28;20617;-69
2021/12/14 03:58:55;;;;;;;0.10;0.10;;;7.70;99.90;;;;;;5045734;28;21610;-70
2021/12/14 04:01:27;;;;;;;0.07;0.07;;;7.80;99.90;;;;;;5053794;28;20733;-71
2021/12/14 04:04:03;;;;;;;0.10;0.10;;;7.80;99.90;;;;;;5048851;28;20636;-71
2021/12/14 04:06:33;;;;;;;0.10;0.10;;;7.80;99.90;;;;;;5046476;28;20661;-70
2021/12/14 04:09:02;;;;;;;0.10;0.10;;;7.80;99.90;;;;;;5048610;28;21209;-71
2021/12/14 04:11:32;;;;;;;0.10;0.10;;;7.80;99.90;;;;;;5054973;28;20640;-71
2021/12/14 04:13:59;;;;;;;0.10;0.10;;;7.80;99.90;;;;;;5032597;28;20656;-71
2021/12/14 04:16:37;;;;;;;0.10;0.10;;;7.80;99.90;;;;;;5049089;28;20624;-71
2021/12/14 04:19:06;;;;;;;0.10;0.10;;;7.80;99.90;;;;;;5050387;28;20618;-70
2021/12/14 04:21:35;;;;;;;0.10;0.10;;;;;;;;;;5044512;28;20757;-71
2021/12/14 04:24:04;;;;;;;0.07;0.07;;;8.00;99.90;;;;;;5064078;28;21217;-68
2021/12/14 04:26:32;;;;;;;0.10;0.10;;;7.90;99.90;;;;;;5046988;28;20683;-69
2021/12/14 04:29:02;;;;;;;0.10;0.10;;;7.90;99.90;;;;;;5067519;28;20675;-70
2021/12/14 04:31:35;;;;;;;0.10;0.10;;;7.80;99.90;;;;;;5051319;28;21249;-70
2021/12/14 04:34:02;;;;;;;0.10;0.10;;;6.90;99.90;;;;;;5050384;28;20742;-70
2021/12/14 04:36:30;;;;;;;0.10;0.10;;;7.90;99.90;;;;;;5050103;28;20606;-70
2021/12/14 04:39:04;;;;;;;0.00;0.00;;;7.80;99.90;;;;;;5047538;28;20610;-70
2021/12/14 04:52:50;;;;;;;0.10;0.10;;;7.90;99.90;;;;;;5049615;28;20640;-69
2021/12/14 04:55:17;;;;;;;0.00;0.00;;;7.70;99.90;;;;;;5046856;28;20622;-69
2021/12/14 04:57:48;;;;;;;0.10;0.10;;;7.70;99.90;;;;;;5046833;28;20609;-70
2021/12/14 05:00:24;;;;;;;0.03;0.03;;;7.70;99.90;;;;;;5051896;28;20667;-70
2021/12/14 05:03:02;;;;;;;0.07;0.07;;;7.80;99.90;;;;;;5033313;28;20649;-69
2021/12/14 05:05:39;;;;;;;0.10;0.10;;;;;;;;;;5035501;28;20631;-70
2021/12/14 05:11:12;;;;;;;0.10;0.10;;;7.60;99.90;;;;;;5047514;28;20620;-70
2021/12/14 05:13:43;;;;;;;0.07;0.07;;;7.60;99.90;;;;;;5064983;28;21016;-69
2021/12/14 05:16:18;;;;;;;0.10;0.10;;;7.60;99.90;;;;;;5067960;28;20608;-70
2021/12/14 05:18:46;;;;;;;0.00;0.00;;;7.80;99.90;;;;;;5047960;28;20671;-70
2021/12/14 05:21:16;;;;;;;0.10;0.10;;;7.70;99.90;;;;;;5048176;28;20627;-70
2021/12/14 05:23:45;;;;;;;0.10;0.10;;;7.70;99.90;;;;;;5051304;28;20708;-70
2021/12/14 05:26:16;;;;;;;0.10;0.10;;;7.70;99.90;;;;;;5052145;28;20693;-69
2021/12/14 05:28:45;;;;;;;0.00;0.00;;;7.50;99.90;;;;;;5050764;28;20649;-70
2021/12/14 05:31:18;;;;;;;0.10;0.10;;;7.60;99.90;;;;;;5049394;28;20671;-71
2021/12/14 05:33:48;;;;;;;0.10;0.10;;;7.50;99.90;;;;;;5053005;28;20636;-71
2021/12/14 05:36:36;;;;;;;0.10;0.10;;;7.50;99.90;;;;;;5053106;28;20617;-70
2021/12/14 05:39:17;;;;;;;0.10;0.10;;;7.70;99.90;;;;;;5050342;28;20617;-70
2021/12/14 05:45:05;;;;;;;0.10;0.10;;;7.60;99.90;;;;;;5055153;28;20671;-69
2021/12/14 05:47:32;;;;;;;0.10;0.10;;;7.60;99.90;;;;;;5049830;28;20710;-69
2021/12/14 05:50:05;;;;;;;0.10;0.10;;;7.60;99.90;;;;;;5050808;28;20613;-71
2021/12/14 05:52:33;;;;;;;0.10;0.10;;;7.60;99.90;;;;;;5051554;28;20732;-70
2021/12/14 05:55:09;;;;;;;0.10;0.10;;;7.70;99.90;;;;;;5051237;28;20618;-69
2021/12/14 05:57:38;;;;;;;0.10;0.10;;;7.60;99.90;;;;;;5036282;28;21034;-70
2021/12/14 06:00:10;;;;;;;0.10;0.10;;;7.60;99.90;;;;;;5047174;28;20630;-70
2021/12/14 06:02:44;;;;;;;0.10;0.10;;;;;;;;;;5050849;28;20624;-69
2021/12/14 06:05:17;;;;;;;0.10;0.10;;;7.50;99.90;;;;;;5052069;28;21862;-69
2021/12/14 06:07:45;;;;;;;0.10;0.10;;;7.60;99.90;;;;;;5049640;28;20653;-70
2021/12/14 06:10:14;;;;;;;0.10;0.10;;;7.50;99.90;;;;;;5052776;28;20626;-69
2021/12/14 06:12:44;;;;;;;0.00;0.00;;;7.60;99.90;;;;;;5036126;28;21006;-69
2021/12/14 06:15:21;;;;;;;0.10;0.10;;;;;;;;;;5051710;28;21206;-70
2021/12/14 06:17:49;;;;;;;0.00;0.00;;;7.70;99.90;;;;;;5051379;28;20644;-69
2021/12/14 06:20:44;;;;;;;0.10;0.10;;;7.60;99.90;;;;;;5053155;28;20665;-70
2021/12/14 06:23:13;;;;;;;0.00;0.00;;;7.60;99.90;;;;;;5048036;28;21288;-70
2021/12/14 06:26:00;;;;;;;0.10;0.10;;;7.70;99.90;;;;;;5047368;28;20623;-70
2021/12/14 06:28:33;;;;;;;0.10;0.10;;;7.60;99.90;;;;;;5039086;28;20643;-70
2021/12/14 06:31:05;;;;;;;0.10;0.10;;;7.60;99.90;;;;;;5042328;28;20625;-69
2021/12/14 06:33:34;;;;;;;0.10;0.10;;;7.60;99.90;;;;;;5053658;28;20633;-69
2021/12/14 06:36:09;;;;;;;0.10;0.10;;;7.60;99.90;;;;;;5052803;28;20717;-70
2021/12/14 06:38:36;;;;;;;0.10;0.10;;;7.60;99.90;;;;;;5045788;28;20612;-69
2021/12/14 06:41:08;;;;;;;0.07;0.07;;;7.50;99.90;;;;;;5068497;28;20628;-70
2021/12/14 06:43:42;;;;;;;0.10;0.10;;;7.60;99.90;;;;;;5054851;28;20645;-70
2021/12/14 06:46:16;;;;;;;0.10;0.10;;;7.60;99.90;;;;;;5066744;28;20625;-70
2021/12/14 06:48:46;;;;;;;0.10;0.10;;;7.60;99.90;;;;;;5048264;28;20632;-70
2021/12/14 06:51:17;;;;;;;0.10;0.10;;;7.60;99.90;;;;;;5067610;28;20653;-70
2021/12/14 06:53:58;;;;;;;0.10;0.10;;;7.60;99.90;;;;;;5048852;28;20621;-68
2021/12/14 06:56:58;;;;;;;0.10;0.10;;;7.60;99.90;;;;;;5049789;28;20707;-69
2021/12/14 06:59:42;;;;;;;0.10;0.10;;;7.60;99.90;;;;;;5051516;28;20629;-69
2021/12/14 07:02:13;;;;;;;0.07;0.07;;;7.40;99.90;;;;;;5050532;28;21383;-69
2021/12/14 07:05:05;;;;;;;0.00;0.00;;;7.50;99.90;;;;;;5065263;28;20717;-69
2021/12/14 07:07:37;;;;;;;0.10;0.10;;;7.50;99.90;;;;;;5047882;28;20702;-69
2021/12/14 07:10:11;;;;;;;0.00;0.00;;;7.50;99.90;;;;;;5054830;28;20729;-69
2021/12/14 07:12:40;;;;;;;0.00;0.00;;;7.50;99.90;;;;;;5048583;28;20653;-69
2021/12/14 07:15:16;;;;;;;0.10;0.10;;;7.60;99.90;;;;;;5051348;28;20633;-68
2021/12/14 07:17:52;;;;;;;0.10;0.10;;;7.50;99.90;;;;;;5050494;28;20666;-69
2021/12/14 07:20:24;;;;;;;0.10;0.10;;;7.50;99.90;;;;;;5051716;28;20617;-69
2021/12/14 07:22:53;;;;;;;0.10;0.10;;;7.50;99.90;;;;;;5052921;28;20685;-69
2021/12/14 07:25:29;;;;;;;0.00;0.00;;;7.50;99.90;;;;;;5049811;28;20625;-69
2021/12/14 07:27:59;;;;;;;0.10;0.10;;;7.50;99.90;;;;;;5049931;28;20658;-69
2021/12/14 07:30:33;;;;;;;0.10;0.10;;;7.60;99.90;;;;;;5048554;28;21089;-69
2021/12/14 07:33:09;;;;;;;0.10;0.10;;;7.50;99.90;;;;;;5050071;28;20671;-69
2021/12/14 07:35:48;;;;;;;0.07;0.07;;;7.60;99.90;;;;;;5067582;28;20644;-69
2021/12/14 07:38:30;;;;;;;0.10;0.10;;;7.60;99.90;;;;;;5049294;28;20628;-69
2021/12/14 07:41:01;;;;;;;0.10;0.10;;;7.50;99.90;;;;;;5049652;28;20646;-68
2021/12/14 07:43:31;;;;;;;0.00;0.00;;;7.50;99.90;;;;;;5044872;28;20626;-69
2021/12/14 07:45:59;;;;;;;0.10;0.10;;;7.50;99.90;;;;;;5066041;28;21127;-69
2021/12/14 07:48:42;;;;;;;0.10;0.10;;;7.70;99.90;;;;;;5049132;28;20659;-69
2021/12/14 07:51:10;;;;;;;0.10;0.10;;;7.50;99.90;;;;;;5048624;28;20675;-69
2021/12/14 07:53:41;;;;;;;0.10;0.10;;;7.60;99.90;;;;;;5051331;28;20629;-69
2021/12/14 07:56:10;;;;;;;0.10;0.10;;;7.50;99.90;;;;;;5044708;28;20605;-68
2021/12/14 07:58:40;;;;;;;0.07;0.07;;;7.40;99.90;;;;;;5049859;28;20617;-69
2021/12/14 08:01:08;;;;;;;0.10;0.10;;;7.60;99.90;;;;;;5048265;28;20640;-69
2021/12/14 08:03:36;;;;;;;0.00;0.00;;;7.60;99.90;;;;;;5044399;28;20614;-69
2021/12/14 08:06:10;;;;;;;0.10;0.10;;;7.60;99.90;;;;;;5048052;28;21064;-69
2021/12/14 08:08:45;;;;;;;0.10;0.10;;;7.60;99.90;;;;;;5044227;28;20692;-69
2021/12/14 08:11:47;;;;;;;0.10;0.10;;;7.60;99.90;;;;;;5046966;28;20706;-70
2021/12/14 08:14:19;;;;;;;0.10;0.10;;;7.60;99.90;;;;;;5047521;28;20713;-68
2021/12/14 08:16:51;;;;;;;0.10;0.10;;;7.60;99.90;;;;;;5050663;28;20675;-69
2021/12/14 08:19:30;;;;;;;0.10;0.10;;;7.60;99.90;;;;;;5051371;28;20613;-69
2021/12/14 08:22:00;;;;;;;0.00;0.00;;;7.60;99.90;;;;;;5047453;28;20636;-69
2021/12/14 08:24:27;;;;;;;0.10;0.10;;;7.70;99.90;;;;;;5043919;28;20719;-69
2021/12/14 08:26:57;;;;;;;0.10;0.10;;;7.60;99.90;;;;;;5063615;28;20654;-69
2021/12/14 08:29:26;;;;;;;0.10;0.10;;;7.60;99.90;;;;;;5049630;28;20634;-70
2021/12/14 08:31:56;;;;;;;0.00;0.00;;;7.80;99.90;;;;;;5051699;28;20690;-69
2021/12/14 08:34:26;;;;;;;0.10;0.10;;;7.70;99.90;;;;;;5054992;28;20648;-70
2021/12/14 08:36:56;;;;;;;0.10;0.10;;;7.80;99.90;;;;;;5049928;28;20617;-69
2021/12/14 08:39:29;;;;;;;0.10;0.10;;;7.70;99.90;;;;;;5046321;28;20633;-69
2021/12/14 08:42:09;;;;;;;0.10;0.10;;;7.70;99.90;;;;;;5049379;28;21298;-70
2021/12/14 08:44:40;;;;;;;0.10;0.10;;;7.70;99.90;;;;;;5047455;28;20621;-69
2021/12/14 08:47:10;;;;;;;0.10;0.10;;;7.70;99.90;;;;;;5047980;28;20660;-70
2021/12/14 08:49:38;;;;;;;0.10;0.10;;;7.80;99.90;;;;;;5034271;28;20662;-70
2021/12/14 08:52:06;;;;;;;0.10;0.10;;;7.70;99.90;;;;;;5045666;28;20787;-70
2021/12/14 08:54:37;;;;;;;0.10;0.10;;;7.70;99.90;;;;;;5044841;28;21067;-70
2021/12/14 08:57:08;;;;;;;0.10;0.10;;;7.80;99.90;;;;;;5048509;28;20618;-69
2021/12/14 08:59:37;;;;;;;0.10;0.10;;;7.70;99.90;;;;;;5055603;28;20639;-70
2021/12/14 09:02:07;;;;;;;0.10;0.10;;;7.70;99.90;;;;;;5053286;28;20663;-70
2021/12/14 09:04:36;;;;;;;0.10;0.10;;;;;;;;;;5050713;28;20683;-69
2021/12/14 09:07:08;;;;;;;0.10;0.10;;;8.20;99.90;;;;;;5053700;28;20657;-70
2021/12/14 09:09:37;;;;;;;0.10;0.10;;;7.30;99.90;;;;;;5048482;28;20617;-69
2021/12/14 09:12:09;;;;;;;0.10;0.10;;;7.80;99.90;;;;;;5053824;28;20692;-70
2021/12/14 09:14:37;;;;;;;0.10;0.10;;;7.90;99.90;;;;;;5049773;28;20658;-69
2021/12/14 09:17:06;;;;;;;0.00;0.00;;;7.80;99.90;;;;;;5053806;28;20695;-69
2021/12/14 09:19:36;;;;;;;0.10;0.10;;;;;;;;;;5049788;28;20721;-69
2021/12/14 09:22:08;;;;;;;0.10;0.10;;;8.00;99.90;;;;;;5049863;28;20753;-69
2021/12/14 09:24:39;;;;;;;0.10;0.10;;;8.00;99.90;;;;;;5049803;28;20724;-69
2021/12/14 09:27:09;;;;;;;0.10;0.10;;;7.80;99.90;;;;;;5050841;28;20678;-69
2021/12/14 09:29:36;;;;;;;0.10;0.10;;;7.90;99.90;;;;;;5051029;28;20617;-69
2021/12/14 09:32:07;;;;;;;0.00;0.00;;;8.00;99.90;;;;;;5051467;28;20675;-69
2021/12/14 09:34:36;;;;;;;0.10;0.10;;;8.00;99.90;;;;;;5049892;28;20613;-70
2021/12/14 09:37:07;;;;;;;0.10;0.10;;;8.00;99.90;;;;;;5051853;28;21269;-69
2021/12/14 09:39:39;;;;;;;0.10;0.10;;;8.00;99.90;;;;;;5052935;28;20668;-70
2021/12/14 09:42:10;;;;;;;0.00;0.00;;;8.20;99.90;;;;;;5048145;28;20754;-70
2021/12/14 09:44:38;;;;;;;0.10;0.10;;;8.10;99.90;;;;;;5049890;28;20729;-70
2021/12/14 09:47:09;;;;;;;0.10;0.10;;;8.20;99.90;;;;;;5049010;28;20628;-70
2021/12/14 09:49:36;;;;;;;0.10;0.10;;;8.20;99.90;;;;;;5054268;28;20647;-68
2021/12/14 09:52:08;;;;;;;0.07;0.07;;;8.20;99.90;;;;;;5053701;28;20647;-69
2021/12/14 09:54:39;;;;;;;0.00;0.00;;;8.30;99.90;;;;;;5052536;28;20640;-70
2021/12/14 09:57:12;;;;;;;0.00;0.00;;;8.30;99.90;;;;;;5053482;28;20635;-70
2021/12/14 09:59:40;;;;;;;0.10;0.10;;;8.40;99.90;;;;;;5050770;28;20654;-69
2021/12/14 10:02:11;;;;;;;0.10;0.10;;;8.40;99.90;;;;;;5051433;28;20656;-70
2021/12/14 10:04:41;;;;;;;0.10;0.10;;;8.50;99.90;;;;;;5052044;28;20605;-69
2021/12/14 10:07:09;;;;;;;0.10;0.10;;;8.50;99.90;;;;;;5052509;28;20655;-69
2021/12/14 10:09:43;;;;;;;0.10;0.10;;;8.50;99.90;;;;;;5052562;28;20638;-70
2021/12/14 10:12:39;;;;;;;0.10;0.10;;;8.60;99.90;;;;;;5052408;28;20652;-69
2021/12/14 10:15:09;;;;;;;0.00;0.00;;;8.50;99.90;;;;;;5033569;28;20664;-70
2021/12/14 10:17:36;;;;;;;0.10;0.10;;;8.50;99.90;;;;;;5051741;28;20639;-70
2021/12/14 10:20:05;;;;;;;0.10;0.10;;;8.60;99.90;;;;;;5051579;28;20675;-69
2021/12/14 10:22:33;;;;;;;0.00;0.00;;;8.60;99.90;;;;;;5053446;28;20661;-70
2021/12/14 10:25:07;;;;;;;0.10;0.10;;;8.70;99.90;;;;;;5053427;28;20601;-70
2021/12/14 10:27:36;;;;;;;0.10;0.10;;;8.70;99.90;;;;;;5047971;28;20665;-70
2021/12/14 10:30:07;;;;;;;0.03;0.03;;;8.60;99.90;;;;;;5050369;28;20640;-69
2021/12/14 10:32:37;;;;;;;0.00;0.00;;;8.70;99.90;;;;;;5052710;28;21232;-70
2021/12/14 10:35:10;;;;;;;0.00;0.00;;;8.80;99.90;;;;;;5051932;28;20600;-69
2021/12/14 10:37:52;;;;;;;0.00;0.00;;;8.80;99.90;;;;;;5047286;28;20653;-70
2021/12/14 10:43:15;;;;;;;0.10;0.10;;;8.80;99.90;;;;;;5054645;28;20644;-69
2021/12/14 10:45:47;;;;;;;0.10;0.10;;;8.80;99.90;;;;;;5056455;28;20686;-70
2021/12/14 10:48:14;;;;;;;0.00;0.00;;;8.80;99.90;;;;;;5052083;28;20652;-70
2021/12/14 10:50:42;;;;;;;0.10;0.10;;;8.80;99.90;;;;;;5046846;28;20651;-70
2021/12/14 10:53:10;;;;;;;0.10;0.10;;;8.70;99.90;;;;;;5050159;28;20640;-69
2021/12/14 10:55:43;;;;;;;0.10;0.10;;;8.80;99.90;;;;;;5050306;28;20633;-69
2021/12/14 10:58:12;;;;;;;0.00;0.00;;;8.80;99.90;;;;;;5056736;28;20626;-69
2021/12/14 11:00:45;;;;;;;0.10;0.10;;;8.80;99.90;;;;;;5067226;28;20658;-70
2021/12/14 11:03:16;;;;;;;0.10;0.10;;;8.90;99.90;;;;;;5049759;28;20652;-70
2021/12/14 11:05:47;;;;;;;0.07;0.07;;;8.90;99.90;;;;;;5052136;28;20625;-70
2021/12/14 11:08:35;;;;;;;0.10;0.10;;;8.90;99.90;;;;;;5049258;28;20756;-69
2021/12/14 11:11:06;;;;;;;0.00;0.00;;;9.00;99.90;;;;;;5046112;28;20644;-69
2021/12/14 11:13:39;;;;;;;0.10;0.10;;;9.00;99.90;;;;;;5049123;28;20666;-69
2021/12/14 11:16:14;;;;;;;0.00;0.00;;;9.00;99.90;;;;;;5047574;28;20613;-69
2021/12/14 11:18:44;;;;;;;0.10;0.10;;;9.10;99.90;;;;;;5048222;28;20627;-69
2021/12/14 11:21:14;;;;;;;0.10;0.10;;;9.10;99.90;;;;;;5047036;28;20618;-69
2021/12/14 11:23:44;;;;;;;0.10;0.10;;;9.10;99.90;;;;;;5045934;28;20712;-70
2021/12/14 11:26:15;;;;;;;0.10;0.10;;;9.20;99.90;;;;;;5046137;28;20657;-69
2021/12/14 11:28:48;;;;;;;0.10;0.10;;;9.20;99.90;;;;;;5052127;28;20649;-69
2021/12/14 11:31:19;;;;;;;0.10;0.10;;;9.30;99.90;;;;;;5046809;28;20630;-68
2021/12/14 11:33:51;;;;;;;0.10;0.10;;;9.30;99.90;;;;;;5049247;28;21185;-69
2021/12/14 11:36:20;;;;;;;0.10;0.10;;;9.20;99.90;;;;;;5050589;28;20627;-69
2021/12/14 11:38:53;;;;;;;0.10;0.10;;;9.30;99.90;;;;;;5050296;28;20620;-68
2021/12/14 11:41:35;;;;;;;0.10;0.10;;;9.30;99.90;;;;;;5050120;28;20979;-69
2021/12/14 11:44:11;;;;;;;0.10;0.10;;;9.30;99.90;;;;;;5048275;28;20648;-68
2021/12/14 11:46:52;;;;;;;0.10;0.10;;;;;;;;;;5047524;28;20617;-69
2021/12/14 11:49:20;;;;;;;0.10;0.10;;;9.50;99.90;;;;;;5052413;28;20660;-69
2021/12/14 11:51:48;;;;;;;0.10;0.10;;;9.40;99.90;;;;;;5051108;28;21097;-69
2021/12/14 11:54:17;;;;;;;0.10;0.10;;;;;;;;;;5049676;28;20653;-69
2021/12/14 11:56:45;;;;;;;0.10;0.10;;;9.40;99.90;;;;;;5063098;28;20632;-69
2021/12/14 11:59:12;;;;;;;0.03;0.03;;;9.40;99.90;;;;;;5048780;28;20639;-69
2021/12/14 12:01:44;;;;;;;0.10;0.10;;;;;;;;;;5052930;28;20644;-69
2021/12/14 12:04:14;;;;;;;0.10;0.10;;;9.40;99.90;;;;;;5034970;28;21156;-69
2021/12/14 12:09:28;;;;;;;0.10;0.10;;;9.30;99.90;;;;;;5050695;28;20629;-69
2021/12/14 12:09:38;;;;;;;0.00;0.00;;;9.40;99.90;;;;;;5048560;28;21273;-69
2021/12/14 12:12:20;;;;;;;0.10;0.10;;;9.40;99.90;;;;;;5052181;28;20701;-69
2021/12/14 12:14:50;;;;;;;0.00;0.00;;;9.40;99.90;;;;;;5053260;28;20672;-69
2021/12/14 12:17:26;;;;;;;0.10;0.10;;;9.40;99.90;;;;;;5047554;28;20622;-68
2021/12/14 12:20:09;;;;;;;0.10;0.10;;;9.40;99.90;;;;;;5052892;28;20617;-68
2021/12/14 12:22:39;;;;;;;0.00;0.00;;;9.40;99.90;;;;;;5047857;28;20750;-69
2021/12/14 12:25:10;;;;;;;0.00;0.00;;;9.60;99.90;;;;;;5048270;28;20629;-70
2021/12/14 12:27:42;;;;;;;0.00;0.00;;;9.90;99.90;;;;;;5054872;28;20637;-69
2021/12/14 12:30:40;;;;;;;0.10;0.10;;;9.50;99.90;;;;;;5052038;28;20812;-69
2021/12/14 12:33:27;;;;;;;0.10;0.10;;;9.50;99.90;;;;;;5047125;28;20653;-68
2021/12/14 12:36:04;;;;;;;0.03;0.03;;;9.40;99.90;;;;;;5052806;28;20622;-69
2021/12/14 12:38:43;;;;;;;0.10;0.10;;;9.50;99.90;;;;;;5047912;28;20716;-69
2021/12/14 12:41:23;;;;;;;0.00;0.00;;;9.50;99.90;;;;;;5047954;28;20702;-69
2021/12/14 12:43:55;;;;;;;0.00;0.00;;;9.50;99.90;;;;;;5044463;28;20611;-69
2021/12/14 12:46:25;;;;;;;0.10;0.10;;;9.50;99.90;;;;;;5046763;28;20622;-69
2021/12/14 12:49:02;;;;;;;0.10;0.10;;;9.50;99.90;;;;;;5045405;28;21846;-69
2021/12/14 12:51:49;;;;;;;0.10;0.10;;;9.60;99.90;;;;;;5047886;28;20670;-69
2021/12/14 12:54:27;;;;;;;0.10;0.10;;;9.60;99.90;;;;;;5048549;28;20669;-68
2021/12/14 12:57:28;;;;;;;0.10;0.10;;;9.60;99.90;;;;;;5063513;28;20621;-68
2021/12/14 13:00:11;;;;;;;0.07;0.07;;;9.60;99.90;;;;;;5053122;28;20625;-69
2021/12/14 13:02:44;;;;;;;0.10;0.10;;;9.60;99.90;;;;;;5052980;28;20640;-67
2021/12/14 13:05:22;;;;;;;0.00;0.00;;;9.60;99.90;;;;;;5038276;28;20666;-68
2021/12/14 13:07:54;;;;;;;0.10;0.10;;;9.50;99.90;;;;;;5045081;28;20657;-69
2021/12/14 13:10:27;;;;;;;0.10;0.10;;;9.60;99.90;;;;;;5048367;28;20659;-69
2021/12/14 13:13:00;;;;;;;0.10;0.10;;;9.60;99.90;;;;;;5046464;28;20677;-68
2021/12/14 13:15:37;;;;;;;0.10;0.10;;;9.60;99.90;;;;;;5048638;28;20626;-69
2021/12/14 13:18:24;;;;;;;0.10;0.10;;;9.60;99.90;;;;;;5053511;28;20612;-69
2021/12/14 13:20:54;;;;;;;0.10;0.10;;;9.60;99.90;;;;;;5042859;28;20649;-70
2021/12/14 13:23:37;;;;;;;0.10;0.10;;;9.60;99.90;;;;;;5064674;28;20667;-69
2021/12/14 13:26:21;;;;;;;0.10;0.10;;;9.60;99.90;;;;;;5061642;28;20817;-69
2021/12/14 13:28:48;;;;;;;0.10;0.10;;;9.50;99.90;;;;;;5047266;28;20675;-69
2021/12/14 13:31:26;;;;;;;0.10;0.10;;;9.50;99.90;;;;;;5046321;28;20725;-68
2021/12/14 13:33:53;;;;;;;0.07;0.07;;;9.50;99.90;;;;;;5049413;28;20630;-69
2021/12/14 13:36:21;;;;;;;0.10;0.10;;;9.60;99.90;;;;;;5048050;28;20644;-69
2021/12/14 13:38:50;;;;;;;0.10;0.10;;;9.60;99.90;;;;;;5046665;28;20609;-68
2021/12/14 13:41:35;;;;;;;0.10;0.10;;;9.50;99.90;;;;;;5049257;28;20699;-69
2021/12/14 13:44:04;;;;;;;0.10;0.10;;;9.50;99.90;;;;;;5036271;28;20740;-68
2021/12/14 13:46:34;;;;;;;0.10;0.10;;;9.60;99.90;;;;;;5053600;28;21261;-70
2021/12/14 13:49:01;;;;;;;0.10;0.10;;;9.50;99.90;;;;;;5050947;28;20676;-69
2021/12/14 13:51:30;;;;;;;0.10;0.10;;;9.50;99.90;;;;;;5052683;28;20771;-69
2021/12/14 13:53:58;;;;;;;0.10;0.10;;;8.80;99.90;;;;;;5034767;28;20609;-69
2021/12/14 13:56:28;;;;;;;0.10;0.10;;;9.60;99.90;;;;;;5056622;28;20303;-69